sensor_id;sensor_type;location;lat;lon;timestamp;P1;durP1;ratioP1;P2;durP2;ratioP2
14890;SDS011;7537;48.014;11.590;2022-12-24T00:03:15;0.66;;;0.44;;
14890;SDS011;7537;48.014;11.590;2022-12-24T00:08:44;0.29;;;0.31;;
14890;SDS011;7537;48.014;11.590;2022-12-24T00:14:15;0.28;;;0.28;;
14890;SDS011;7537;48.014;11.590;2022-12-24T00:19:42;0.59;;;0.29;;
14890;SDS011;7537;48.014;11.590;2022-12-24T00:26:39;0.38;;;0.41;;
14890;SDS011;7537;48.014;11.590;2022-12-24T00:32:06;0.76;;;0.47;;
14890;SDS011;7537;48.014;11.590;2022-12-24T00:37:34;0.44;;;0.48;;
14890;SDS011;7537;48.014;11.590;2022-12-24T00:43:03;0.26;;;0.28;;
14890;SDS011;7537;48.014;11.590;2022-12-24T00:48:31;0.26;;;0.29;;
14890;SDS011;7537;48.014;11.590;2022-12-24T00:53:58;4.24;;;0.49;;
14890;SDS011;7537;48.014;11.590;2022-12-24T00:59:36;0.86;;;0.91;;
14890;SDS011;7537;48.014;11.590;2022-12-24T01:05:05;0.86;;;0.66;;
14890;SDS011;7537;48.014;11.590;2022-12-24T01:10:33;0.65;;;0.55;;
14890;SDS011;7537;48.014;11.590;2022-12-24T01:16:02;0.38;;;0.40;;
14890;SDS011;7537;48.014;11.590;2022-12-24T01:21:35;0.39;;;0.45;;
14890;SDS011;7537;48.014;11.590;2022-12-24T01:27:02;0.81;;;0.47;;
14890;SDS011;7537;48.014;11.590;2022-12-24T01:32:29;0.26;;;0.29;;
14890;SDS011;7537;48.014;11.590;2022-12-24T01:37:57;1.01;;;0.58;;
14890;SDS011;7537;48.014;11.590;2022-12-24T01:43:25;0.59;;;0.53;;
14890;SDS011;7537;48.014;11.590;2022-12-24T01:48:54;1.14;;;0.40;;
14890;SDS011;7537;48.014;11.590;2022-12-24T01:54:23;0.67;;;0.48;;
14890;SDS011;7537;48.014;11.590;2022-12-24T01:59:56;2.93;;;1.01;;
14890;SDS011;7537;48.014;11.590;2022-12-24T02:05:25;1.19;;;0.64;;
14890;SDS011;7537;48.014;11.590;2022-12-24T02:10:54;1.62;;;0.62;;
14890;SDS011;7537;48.014;11.590;2022-12-24T02:16:25;0.59;;;0.63;;
14890;SDS011;7537;48.014;11.590;2022-12-24T02:21:57;0.89;;;0.73;;
14890;SDS011;7537;48.014;11.590;2022-12-24T02:27:38;0.53;;;0.57;;
14890;SDS011;7537;48.014;11.590;2022-12-24T02:33:19;1.79;;;0.74;;
14890;SDS011;7537;48.014;11.590;2022-12-24T02:38:51;0.98;;;0.44;;
14890;SDS011;7537;48.014;11.590;2022-12-24T02:44:21;1.96;;;0.69;;
14890;SDS011;7537;48.014;11.590;2022-12-24T02:49:49;0.99;;;0.47;;
14890;SDS011;7537;48.014;11.590;2022-12-24T02:55:19;0.92;;;0.39;;
14890;SDS011;7537;48.014;11.590;2022-12-24T03:00:53;1.41;;;1.28;;
14890;SDS011;7537;48.014;11.590;2022-12-24T03:06:24;0.95;;;0.76;;
14890;SDS011;7537;48.014;11.590;2022-12-24T03:11:56;0.66;;;0.73;;
14890;SDS011;7537;48.014;11.590;2022-12-24T03:17:24;1.17;;;0.56;;
14890;SDS011;7537;48.014;11.590;2022-12-24T03:22:52;6.69;;;0.89;;
14890;SDS011;7537;48.014;11.590;2022-12-24T03:28:23;0.80;;;0.59;;
14890;SDS011;7537;48.014;11.590;2022-12-24T03:33:51;1.20;;;1.01;;
14890;SDS011;7537;48.014;11.590;2022-12-24T03:39:18;0.68;;;0.54;;
14890;SDS011;7537;48.014;11.590;2022-12-24T03:44:46;1.31;;;0.67;;
14890;SDS011;7537;48.014;11.590;2022-12-24T03:50:13;1.23;;;0.91;;
14890;SDS011;7537;48.014;11.590;2022-12-24T03:55:40;3.40;;;1.71;;
14890;SDS011;7537;48.014;11.590;2022-12-24T04:01:13;0.44;;;0.53;;
14890;SDS011;7537;48.014;11.590;2022-12-24T04:06:40;0.55;;;0.60;;
14890;SDS011;7537;48.014;11.590;2022-12-24T04:12:07;0.74;;;0.65;;
14890;SDS011;7537;48.014;11.590;2022-12-24T04:17:35;0.86;;;0.71;;
14890;SDS011;7537;48.014;11.590;2022-12-24T04:23:02;0.49;;;0.55;;
14890;SDS011;7537;48.014;11.590;2022-12-24T04:28:30;0.35;;;0.38;;
14890;SDS011;7537;48.014;11.590;2022-12-24T04:33:59;1.57;;;0.53;;
14890;SDS011;7537;48.014;11.590;2022-12-24T04:39:26;0.60;;;0.63;;
14890;SDS011;7537;48.014;11.590;2022-12-24T04:44:53;2.05;;;0.56;;
14890;SDS011;7537;48.014;11.590;2022-12-24T04:51:51;1.44;;;0.93;;
14890;SDS011;7537;48.014;11.590;2022-12-24T04:57:19;0.83;;;0.76;;
14890;SDS011;7537;48.014;11.590;2022-12-24T05:02:46;1.22;;;0.41;;
14890;SDS011;7537;48.014;11.590;2022-12-24T05:08:15;0.56;;;0.59;;
14890;SDS011;7537;48.014;11.590;2022-12-24T05:13:43;0.34;;;0.38;;
14890;SDS011;7537;48.014;11.590;2022-12-24T05:19:10;2.56;;;0.87;;
14890;SDS011;7537;48.014;11.590;2022-12-24T05:24:38;0.54;;;0.60;;
14890;SDS011;7537;48.014;11.590;2022-12-24T05:30:06;4.23;;;1.04;;
14890;SDS011;7537;48.014;11.590;2022-12-24T05:35:33;1.72;;;0.99;;
14890;SDS011;7537;48.014;11.590;2022-12-24T05:41:04;1.42;;;0.57;;
14890;SDS011;7537;48.014;11.590;2022-12-24T05:46:31;2.29;;;0.69;;
14890;SDS011;7537;48.014;11.590;2022-12-24T05:52:02;0.91;;;0.67;;
14890;SDS011;7537;48.014;11.590;2022-12-24T05:57:29;1.04;;;1.09;;
14890;SDS011;7537;48.014;11.590;2022-12-24T06:02:57;0.62;;;0.39;;
14890;SDS011;7537;48.014;11.590;2022-12-24T06:08:24;0.64;;;0.74;;
14890;SDS011;7537;48.014;11.590;2022-12-24T06:13:53;0.35;;;0.41;;
14890;SDS011;7537;48.014;11.590;2022-12-24T06:19:23;0.49;;;0.51;;
14890;SDS011;7537;48.014;11.590;2022-12-24T06:24:51;0.26;;;0.27;;
14890;SDS011;7537;48.014;11.590;2022-12-24T06:30:18;0.17;;;0.14;;
14890;SDS011;7537;48.014;11.590;2022-12-24T06:35:46;0.55;;;0.38;;
14890;SDS011;7537;48.014;11.590;2022-12-24T06:41:14;0.50;;;0.38;;
14890;SDS011;7537;48.014;11.590;2022-12-24T06:46:41;0.62;;;0.32;;
14890;SDS011;7537;48.014;11.590;2022-12-24T06:52:14;1.21;;;0.46;;
14890;SDS011;7537;48.014;11.590;2022-12-24T06:57:41;1.07;;;0.26;;
14890;SDS011;7537;48.014;11.590;2022-12-24T07:03:09;0.16;;;0.18;;
14890;SDS011;7537;48.014;11.590;2022-12-24T07:08:37;1.03;;;0.62;;
14890;SDS011;7537;48.014;11.590;2022-12-24T07:14:04;1.64;;;1.29;;
14890;SDS011;7537;48.014;11.590;2022-12-24T07:19:32;2.93;;;0.86;;
14890;SDS011;7537;48.014;11.590;2022-12-24T07:25:13;1.24;;;0.29;;
14890;SDS011;7537;48.014;11.590;2022-12-24T07:30:41;1.27;;;0.56;;
14890;SDS011;7537;48.014;11.590;2022-12-24T07:36:09;0.56;;;0.59;;
14890;SDS011;7537;48.014;11.590;2022-12-24T07:41:40;0.62;;;0.58;;
14890;SDS011;7537;48.014;11.590;2022-12-24T07:47:08;0.29;;;0.33;;
14890;SDS011;7537;48.014;11.590;2022-12-24T07:52:38;0.61;;;0.45;;
14890;SDS011;7537;48.014;11.590;2022-12-24T07:58:07;1.03;;;0.38;;
14890;SDS011;7537;48.014;11.590;2022-12-24T08:03:34;0.31;;;0.24;;
14890;SDS011;7537;48.014;11.590;2022-12-24T08:09:02;2.56;;;0.39;;
14890;SDS011;7537;48.014;11.590;2022-12-24T08:14:30;0.34;;;0.38;;
14890;SDS011;7537;48.014;11.590;2022-12-24T08:19:57;0.15;;;0.17;;
14890;SDS011;7537;48.014;11.590;2022-12-24T08:25:24;1.07;;;0.57;;
14890;SDS011;7537;48.014;11.590;2022-12-24T08:30:53;0.62;;;0.53;;
14890;SDS011;7537;48.014;11.590;2022-12-24T08:36:21;0.99;;;0.38;;
14890;SDS011;7537;48.014;11.590;2022-12-24T08:41:48;0.21;;;0.15;;
14890;SDS011;7537;48.014;11.590;2022-12-24T08:49:55;0.58;;;0.44;;
14890;SDS011;7537;48.014;11.590;2022-12-24T08:55:22;0.66;;;0.42;;
14890;SDS011;7537;48.014;11.590;2022-12-24T09:01:21;0.26;;;0.28;;
14890;SDS011;7537;48.014;11.590;2022-12-24T09:06:50;0.24;;;0.20;;
14890;SDS011;7537;48.014;11.590;2022-12-24T09:12:17;0.25;;;0.15;;
14890;SDS011;7537;48.014;11.590;2022-12-24T09:17:45;0.78;;;0.36;;
14890;SDS011;7537;48.014;11.590;2022-12-24T09:25:02;1.01;;;0.34;;
14890;SDS011;7537;48.014;11.590;2022-12-24T09:30:30;2.46;;;0.55;;
14890;SDS011;7537;48.014;11.590;2022-12-24T09:35:57;2.69;;;0.52;;
14890;SDS011;7537;48.014;11.590;2022-12-24T09:41:28;0.28;;;0.31;;
14890;SDS011;7537;48.014;11.590;2022-12-24T09:46:58;1.21;;;0.43;;
14890;SDS011;7537;48.014;11.590;2022-12-24T09:55:06;3.45;;;0.93;;
14890;SDS011;7537;48.014;11.590;2022-12-24T10:00:36;5.36;;;0.53;;
14890;SDS011;7537;48.014;11.590;2022-12-24T10:06:04;1.62;;;0.40;;
14890;SDS011;7537;48.014;11.590;2022-12-24T10:11:38;1.91;;;0.45;;
14890;SDS011;7537;48.014;11.590;2022-12-24T10:17:15;0.73;;;0.41;;
14890;SDS011;7537;48.014;11.590;2022-12-24T10:23:51;2.80;;;0.38;;
14890;SDS011;7537;48.014;11.590;2022-12-24T10:29:22;0.78;;;0.64;;
14890;SDS011;7537;48.014;11.590;2022-12-24T10:35:18;0.56;;;0.37;;
14890;SDS011;7537;48.014;11.590;2022-12-24T10:40:48;0.41;;;0.41;;
14890;SDS011;7537;48.014;11.590;2022-12-24T10:46:38;0.67;;;0.58;;
14890;SDS011;7537;48.014;11.590;2022-12-24T10:52:09;1.93;;;0.46;;
14890;SDS011;7537;48.014;11.590;2022-12-24T10:57:37;0.61;;;0.64;;
14890;SDS011;7537;48.014;11.590;2022-12-24T11:03:59;0.57;;;0.40;;
14890;SDS011;7537;48.014;11.590;2022-12-24T11:09:56;1.05;;;0.36;;
14890;SDS011;7537;48.014;11.590;2022-12-24T11:15:25;1.59;;;0.60;;
14890;SDS011;7537;48.014;11.590;2022-12-24T11:20:53;0.97;;;0.55;;
14890;SDS011;7537;48.014;11.590;2022-12-24T11:26:23;1.09;;;0.52;;
14890;SDS011;7537;48.014;11.590;2022-12-24T11:31:51;0.47;;;0.43;;
14890;SDS011;7537;48.014;11.590;2022-12-24T11:37:19;1.00;;;0.79;;
14890;SDS011;7537;48.014;11.590;2022-12-24T11:42:47;0.92;;;0.54;;
14890;SDS011;7537;48.014;11.590;2022-12-24T11:50:23;1.61;;;0.99;;
14890;SDS011;7537;48.014;11.590;2022-12-24T11:55:54;0.33;;;0.36;;
14890;SDS011;7537;48.014;11.590;2022-12-24T12:01:23;1.66;;;1.03;;
14890;SDS011;7537;48.014;11.590;2022-12-24T12:06:53;1.26;;;0.96;;
14890;SDS011;7537;48.014;11.590;2022-12-24T12:12:46;3.58;;;0.69;;
14890;SDS011;7537;48.014;11.590;2022-12-24T12:18:18;1.12;;;0.88;;
14890;SDS011;7537;48.014;11.590;2022-12-24T12:23:48;0.39;;;0.43;;
14890;SDS011;7537;48.014;11.590;2022-12-24T12:29:19;0.57;;;0.39;;
14890;SDS011;7537;48.014;11.590;2022-12-24T12:34:54;1.91;;;0.58;;
14890;SDS011;7537;48.014;11.590;2022-12-24T12:40:24;0.70;;;0.52;;
14890;SDS011;7537;48.014;11.590;2022-12-24T12:45:54;1.16;;;0.49;;
14890;SDS011;7537;48.014;11.590;2022-12-24T12:51:26;1.44;;;1.13;;
14890;SDS011;7537;48.014;11.590;2022-12-24T12:56:55;0.88;;;0.63;;
14890;SDS011;7537;48.014;11.590;2022-12-24T13:08:17;0.57;;;0.56;;
14890;SDS011;7537;48.014;11.590;2022-12-24T13:13:54;0.49;;;0.47;;
14890;SDS011;7537;48.014;11.590;2022-12-24T13:19:32;0.86;;;0.58;;
14890;SDS011;7537;48.014;11.590;2022-12-24T13:28:16;1.64;;;0.56;;
14890;SDS011;7537;48.014;11.590;2022-12-24T13:33:46;0.77;;;0.62;;
14890;SDS011;7537;48.014;11.590;2022-12-24T13:39:18;0.97;;;0.42;;
14890;SDS011;7537;48.014;11.590;2022-12-24T13:47:42;1.63;;;0.63;;
14890;SDS011;7537;48.014;11.590;2022-12-24T13:53:20;0.41;;;0.28;;
14890;SDS011;7537;48.014;11.590;2022-12-24T13:58:49;2.22;;;0.42;;
14890;SDS011;7537;48.014;11.590;2022-12-24T14:04:22;0.69;;;0.39;;
14890;SDS011;7537;48.014;11.590;2022-12-24T14:09:53;2.08;;;0.41;;
14890;SDS011;7537;48.014;11.590;2022-12-24T14:21:06;2.03;;;0.50;;
14890;SDS011;7537;48.014;11.590;2022-12-24T14:26:35;0.47;;;0.40;;
14890;SDS011;7537;48.014;11.590;2022-12-24T14:32:12;2.76;;;0.69;;
14890;SDS011;7537;48.014;11.590;2022-12-24T14:37:41;0.46;;;0.37;;
14890;SDS011;7537;48.014;11.590;2022-12-24T14:43:16;1.29;;;1.13;;
14890;SDS011;7537;48.014;11.590;2022-12-24T14:48:49;1.60;;;0.91;;
14890;SDS011;7537;48.014;11.590;2022-12-24T14:54:24;0.45;;;0.43;;
14890;SDS011;7537;48.014;11.590;2022-12-24T15:02:54;0.74;;;0.56;;
14890;SDS011;7537;48.014;11.590;2022-12-24T15:13:39;1.07;;;0.62;;
14890;SDS011;7537;48.014;11.590;2022-12-24T15:19:14;3.85;;;1.91;;
14890;SDS011;7537;48.014;11.590;2022-12-24T15:24:44;3.53;;;1.73;;
14890;SDS011;7537;48.014;11.590;2022-12-24T15:30:14;4.93;;;1.49;;
14890;SDS011;7537;48.014;11.590;2022-12-24T15:35:49;1.81;;;1.91;;
14890;SDS011;7537;48.014;11.590;2022-12-24T15:41:19;1.45;;;1.04;;
14890;SDS011;7537;48.014;11.590;2022-12-24T15:46:48;4.29;;;1.66;;
14890;SDS011;7537;48.014;11.590;2022-12-24T16:01:04;2.10;;;1.89;;
14890;SDS011;7537;48.014;11.590;2022-12-24T16:06:49;2.58;;;2.19;;
14890;SDS011;7537;48.014;11.590;2022-12-24T16:12:17;1.46;;;1.56;;
14890;SDS011;7537;48.014;11.590;2022-12-24T16:17:47;2.21;;;1.61;;
14890;SDS011;7537;48.014;11.590;2022-12-24T16:23:19;3.36;;;2.26;;
14890;SDS011;7537;48.014;11.590;2022-12-24T16:28:47;1.64;;;1.77;;
14890;SDS011;7537;48.014;11.590;2022-12-24T16:34:16;0.87;;;1.01;;
14890;SDS011;7537;48.014;11.590;2022-12-24T16:40:38;0.92;;;0.91;;
14890;SDS011;7537;48.014;11.590;2022-12-24T16:46:48;3.59;;;3.10;;
14890;SDS011;7537;48.014;11.590;2022-12-24T16:52:17;8.87;;;6.91;;
14890;SDS011;7537;48.014;11.590;2022-12-24T16:57:44;5.74;;;3.14;;
14890;SDS011;7537;48.014;11.590;2022-12-24T17:03:12;3.84;;;2.54;;
14890;SDS011;7537;48.014;11.590;2022-12-24T17:08:40;3.12;;;2.04;;
14890;SDS011;7537;48.014;11.590;2022-12-24T17:14:08;3.36;;;2.29;;
14890;SDS011;7537;48.014;11.590;2022-12-24T17:19:36;2.48;;;0.91;;
14890;SDS011;7537;48.014;11.590;2022-12-24T17:25:04;1.54;;;1.26;;
14890;SDS011;7537;48.014;11.590;2022-12-24T17:30:32;0.74;;;0.84;;
14890;SDS011;7537;48.014;11.590;2022-12-24T17:35:59;1.31;;;1.36;;
14890;SDS011;7537;48.014;11.590;2022-12-24T17:41:28;5.83;;;4.42;;
14890;SDS011;7537;48.014;11.590;2022-12-24T17:46:59;2.19;;;2.40;;
14890;SDS011;7537;48.014;11.590;2022-12-24T17:52:26;1.92;;;1.59;;
14890;SDS011;7537;48.014;11.590;2022-12-24T17:57:53;2.19;;;2.14;;
14890;SDS011;7537;48.014;11.590;2022-12-24T18:03:21;3.11;;;2.96;;
14890;SDS011;7537;48.014;11.590;2022-12-24T18:08:48;1.91;;;2.01;;
14890;SDS011;7537;48.014;11.590;2022-12-24T18:14:17;4.59;;;1.50;;
14890;SDS011;7537;48.014;11.590;2022-12-24T18:19:44;2.61;;;2.56;;
14890;SDS011;7537;48.014;11.590;2022-12-24T18:25:11;2.93;;;2.61;;
14890;SDS011;7537;48.014;11.590;2022-12-24T18:30:39;2.31;;;2.19;;
14890;SDS011;7537;48.014;11.590;2022-12-24T18:36:07;2.27;;;1.83;;
14890;SDS011;7537;48.014;11.590;2022-12-24T18:41:35;2.36;;;1.40;;
14890;SDS011;7537;48.014;11.590;2022-12-24T18:47:07;1.05;;;0.94;;
14890;SDS011;7537;48.014;11.590;2022-12-24T18:52:34;1.25;;;1.30;;
14890;SDS011;7537;48.014;11.590;2022-12-24T18:58:02;1.12;;;1.16;;
14890;SDS011;7537;48.014;11.590;2022-12-24T19:03:29;3.56;;;2.08;;
14890;SDS011;7537;48.014;11.590;2022-12-24T19:08:56;2.50;;;1.71;;
14890;SDS011;7537;48.014;11.590;2022-12-24T19:14:24;1.55;;;1.54;;
14890;SDS011;7537;48.014;11.590;2022-12-24T19:20:16;1.51;;;1.60;;
14890;SDS011;7537;48.014;11.590;2022-12-24T19:25:45;2.70;;;2.10;;
14890;SDS011;7537;48.014;11.590;2022-12-24T19:32:18;3.19;;;1.78;;
14890;SDS011;7537;48.014;11.590;2022-12-24T19:37:45;3.06;;;2.43;;
14890;SDS011;7537;48.014;11.590;2022-12-24T19:43:12;1.74;;;1.14;;
14890;SDS011;7537;48.014;11.590;2022-12-24T19:48:40;2.17;;;1.44;;
14890;SDS011;7537;48.014;11.590;2022-12-24T19:54:08;1.23;;;1.19;;
14890;SDS011;7537;48.014;11.590;2022-12-24T19:59:37;0.60;;;0.66;;
14890;SDS011;7537;48.014;11.590;2022-12-24T20:05:05;1.26;;;1.21;;
14890;SDS011;7537;48.014;11.590;2022-12-24T20:10:32;0.72;;;0.79;;
14890;SDS011;7537;48.014;11.590;2022-12-24T20:16:08;0.75;;;0.85;;
14890;SDS011;7537;48.014;11.590;2022-12-24T20:21:36;1.01;;;1.11;;
14890;SDS011;7537;48.014;11.590;2022-12-24T20:27:03;1.10;;;1.16;;
14890;SDS011;7537;48.014;11.590;2022-12-24T20:32:35;1.54;;;0.90;;
14890;SDS011;7537;48.014;11.590;2022-12-24T20:38:24;0.74;;;0.81;;
14890;SDS011;7537;48.014;11.590;2022-12-24T20:43:51;1.16;;;0.72;;
14890;SDS011;7537;48.014;11.590;2022-12-24T20:49:19;1.25;;;0.90;;
14890;SDS011;7537;48.014;11.590;2022-12-24T20:54:46;0.96;;;1.07;;
14890;SDS011;7537;48.014;11.590;2022-12-24T21:00:15;1.38;;;1.41;;
14890;SDS011;7537;48.014;11.590;2022-12-24T21:05:43;0.52;;;0.61;;
14890;SDS011;7537;48.014;11.590;2022-12-24T21:11:11;1.24;;;0.84;;
14890;SDS011;7537;48.014;11.590;2022-12-24T21:16:39;1.11;;;0.98;;
14890;SDS011;7537;48.014;11.590;2022-12-24T21:22:06;0.96;;;0.97;;
14890;SDS011;7537;48.014;11.590;2022-12-24T21:27:34;0.92;;;0.82;;
14890;SDS011;7537;48.014;11.590;2022-12-24T21:33:01;0.67;;;0.70;;
14890;SDS011;7537;48.014;11.590;2022-12-24T21:38:34;0.86;;;0.95;;
14890;SDS011;7537;48.014;11.590;2022-12-24T21:44:01;0.58;;;0.66;;
14890;SDS011;7537;48.014;11.590;2022-12-24T21:49:29;2.34;;;0.88;;
14890;SDS011;7537;48.014;11.590;2022-12-24T21:58:07;0.71;;;0.77;;
14890;SDS011;7537;48.014;11.590;2022-12-24T22:03:34;1.10;;;0.89;;
14890;SDS011;7537;48.014;11.590;2022-12-24T22:09:03;1.76;;;1.28;;
14890;SDS011;7537;48.014;11.590;2022-12-24T22:14:32;1.03;;;1.00;;
14890;SDS011;7537;48.014;11.590;2022-12-24T22:20:00;1.95;;;1.25;;
14890;SDS011;7537;48.014;11.590;2022-12-24T22:25:28;0.76;;;0.83;;
14890;SDS011;7537;48.014;11.590;2022-12-24T22:30:55;0.99;;;1.10;;
14890;SDS011;7537;48.014;11.590;2022-12-24T22:36:29;3.15;;;1.66;;
14890;SDS011;7537;48.014;11.590;2022-12-24T22:41:57;1.39;;;1.44;;
14890;SDS011;7537;48.014;11.590;2022-12-24T22:47:26;1.28;;;1.35;;
14890;SDS011;7537;48.014;11.590;2022-12-24T22:52:55;1.12;;;1.18;;
14890;SDS011;7537;48.014;11.590;2022-12-24T22:58:22;0.79;;;0.89;;
14890;SDS011;7537;48.014;11.590;2022-12-24T23:03:50;0.86;;;0.95;;
14890;SDS011;7537;48.014;11.590;2022-12-24T23:09:26;0.68;;;0.72;;
14890;SDS011;7537;48.014;11.590;2022-12-24T23:14:55;0.94;;;1.04;;
14890;SDS011;7537;48.014;11.590;2022-12-24T23:20:24;0.62;;;0.64;;
14890;SDS011;7537;48.014;11.590;2022-12-24T23:26:04;0.68;;;0.74;;
14890;SDS011;7537;48.014;11.590;2022-12-24T23:31:33;1.89;;;1.23;;
14890;SDS011;7537;48.014;11.590;2022-12-24T23:37:02;0.89;;;0.98;;
14890;SDS011;7537;48.014;11.590;2022-12-24T23:42:30;1.37;;;0.94;;
14890;SDS011;7537;48.014;11.590;2022-12-24T23:47:59;0.74;;;0.72;;
14890;SDS011;7537;48.014;11.590;2022-12-24T23:53:28;0.72;;;0.71;;
14890;SDS011;7537;48.014;11.590;2022-12-24T23:58:56;1.16;;;0.79;;
